createdAt,value
2022-11-17T00:02:30.539Z,19.77
2022-11-17T00:08:54.953Z,19.72
2022-11-17T00:15:19.330Z,19.66
2022-11-17T00:21:46.443Z,19.61
2022-11-17T00:28:10.869Z,19.57
2022-11-17T00:34:35.266Z,19.52
2022-11-17T00:40:59.704Z,19.48
2022-11-17T00:47:24.147Z,19.43
2022-11-17T00:53:48.506Z,19.38
2022-11-17T01:00:12.884Z,19.33
2022-11-17T01:06:37.473Z,19.28
2022-11-17T01:13:01.818Z,19.24
2022-11-17T01:19:26.118Z,19.19
2022-11-17T01:25:50.599Z,19.15
2022-11-17T01:32:17.650Z,19.11
2022-11-17T01:38:42.022Z,19.06
2022-11-17T01:45:17.136Z,19.01
2022-11-17T01:51:41.447Z,18.96
2022-11-17T01:58:08.641Z,18.92
2022-11-17T02:04:33.015Z,18.87
2022-11-17T02:10:57.341Z,18.83
2022-11-17T02:17:21.786Z,18.78
2022-11-17T02:23:54.922Z,18.75
2022-11-17T02:30:31.151Z,18.71
2022-11-17T02:36:58.191Z,18.66
2022-11-17T02:43:20.876Z,18.62
2022-11-17T02:49:54.879Z,18.58
2022-11-17T02:56:19.146Z,18.54
2022-11-17T03:02:43.592Z,18.50
2022-11-17T03:09:25.731Z,18.47
2022-11-17T03:15:55.774Z,18.44
2022-11-17T03:22:32.175Z,18.41
2022-11-17T03:28:56.619Z,18.37
2022-11-17T03:35:20.892Z,18.33
2022-11-17T03:41:45.207Z,18.30
2022-11-17T03:48:09.721Z,18.27
2022-11-17T03:54:34.032Z,18.25
2022-11-17T04:01:04.789Z,18.20
2022-11-17T04:07:29.174Z,18.18
2022-11-17T04:13:52.128Z,18.15
2022-11-17T04:20:16.453Z,18.12
2022-11-17T04:26:39.476Z,18.09
2022-11-17T04:33:03.870Z,18.06
2022-11-17T04:39:28.176Z,18.02
2022-11-17T04:45:52.508Z,17.99
2022-11-17T04:52:16.796Z,17.96
2022-11-17T04:58:41.543Z,17.94
2022-11-17T05:05:17.925Z,17.91
2022-11-17T05:11:40.616Z,17.88
2022-11-17T05:18:05.047Z,17.85
2022-11-17T05:24:29.395Z,17.82
2022-11-17T05:30:53.727Z,17.80
2022-11-17T05:37:17.996Z,17.78
2022-11-17T05:43:42.371Z,17.77
2022-11-17T05:50:06.643Z,17.80
2022-11-17T05:56:30.937Z,17.87
2022-11-17T06:03:04.412Z,17.98
2022-11-17T06:09:28.942Z,18.13
2022-11-17T06:15:53.214Z,18.27
2022-11-17T06:22:17.550Z,18.40
2022-11-17T06:28:41.825Z,18.52
2022-11-17T06:34:58.688Z,18.63
2022-11-17T06:41:23.137Z,18.73
2022-11-17T06:47:47.569Z,18.83
2022-11-17T06:54:12.141Z,18.94
2022-11-17T07:00:36.441Z,19.03
2022-11-17T07:07:00.748Z,19.11
2022-11-17T07:13:25.142Z,19.18
2022-11-17T07:19:49.481Z,19.25
2022-11-17T07:26:13.778Z,19.33
2022-11-17T07:32:38.055Z,19.41
2022-11-17T07:39:02.365Z,19.46
2022-11-17T07:45:31.648Z,19.50
2022-11-17T07:51:56.661Z,19.55
2022-11-17T07:58:21.123Z,19.59
2022-11-17T08:04:45.659Z,19.63
2022-11-17T08:11:10.095Z,19.66
2022-11-17T08:17:29.604Z,19.69
2022-11-17T08:23:53.927Z,19.73
2022-11-17T08:30:18.334Z,19.78
2022-11-17T08:36:42.790Z,19.82
2022-11-17T08:43:07.263Z,19.86
2022-11-17T08:49:31.640Z,19.91
2022-11-17T08:55:56.090Z,19.96
2022-11-17T09:02:20.389Z,20.02
2022-11-17T09:08:46.634Z,20.07
2022-11-17T09:15:11.662Z,20.12
2022-11-17T09:21:36.068Z,20.15
2022-11-17T09:28:00.396Z,20.18
2022-11-17T09:34:18.618Z,20.21
2022-11-17T09:40:42.983Z,20.23
2022-11-17T09:47:12.943Z,20.24
2022-11-17T09:53:55.788Z,20.25
2022-11-17T10:00:20.061Z,20.24
2022-11-17T10:06:44.375Z,20.25
2022-11-17T10:13:08.687Z,20.28
2022-11-17T10:19:33.028Z,20.31
2022-11-17T10:26:03.073Z,20.34
2022-11-17T10:32:27.476Z,20.40
2022-11-17T10:38:54.754Z,20.45
2022-11-17T10:45:25.011Z,20.50
2022-11-17T10:51:58.423Z,20.54
2022-11-17T10:58:22.730Z,20.57
2022-11-17T11:04:47.156Z,20.60
2022-11-17T11:11:14.344Z,20.64
2022-11-17T11:17:38.635Z,20.67
2022-11-17T11:24:15.264Z,20.70
2022-11-17T11:30:52.148Z,20.73
2022-11-17T11:37:20.762Z,20.74
2022-11-17T11:44:03.387Z,20.74
2022-11-17T11:50:41.637Z,20.74
2022-11-17T11:57:18.072Z,20.73
2022-11-17T12:03:45.131Z,20.73
2022-11-17T12:10:21.305Z,20.71
2022-11-17T12:16:50.596Z,20.72
2022-11-17T12:23:14.867Z,20.72
2022-11-17T12:30:00.543Z,20.74
2022-11-17T12:36:31.197Z,20.76
2022-11-17T12:43:04.715Z,20.79
2022-11-17T12:49:31.913Z,20.80
2022-11-17T12:56:13.629Z,20.81
2022-11-17T13:02:40.881Z,20.82
2022-11-17T13:09:17.400Z,20.84
2022-11-17T13:15:41.812Z,20.85
2022-11-17T13:22:06.226Z,20.87
2022-11-17T13:28:30.616Z,20.90
2022-11-17T13:35:04.105Z,20.93
2022-11-17T13:41:28.417Z,20.98
2022-11-17T13:47:58.283Z,21.02
2022-11-17T13:54:22.719Z,21.03
2022-11-17T14:00:47.480Z,21.01
2022-11-17T14:07:11.876Z,21.01
2022-11-17T14:13:40.537Z,21.01
2022-11-17T14:20:05.060Z,21.02
2022-11-17T14:26:29.620Z,21.04
2022-11-17T14:32:56.000Z,21.05
2022-11-17T14:39:22.611Z,21.05
2022-11-17T14:45:47.165Z,21.04
2022-11-17T14:52:10.445Z,21.05
2022-11-17T14:58:34.869Z,21.07
2022-11-17T15:04:59.629Z,21.13
2022-11-17T15:11:24.474Z,21.14
2022-11-17T15:17:48.859Z,21.09
2022-11-17T15:24:13.682Z,21.04
2022-11-17T15:30:38.251Z,21.01
2022-11-17T15:37:02.648Z,21.00
2022-11-17T15:43:27.086Z,21.00
2022-11-17T15:49:51.563Z,20.99
2022-11-17T15:56:15.875Z,20.97
2022-11-17T16:02:40.204Z,20.94
2022-11-17T16:09:04.524Z,20.92
2022-11-17T16:15:28.917Z,20.95
2022-11-17T16:21:53.262Z,21.04
2022-11-17T16:28:17.235Z,21.15
2022-11-17T16:34:41.535Z,21.25
2022-11-17T16:41:06.150Z,21.35
2022-11-17T16:47:30.441Z,21.43
2022-11-17T16:53:54.882Z,21.50
2022-11-17T17:00:19.239Z,21.58
2022-11-17T17:06:43.819Z,21.66
2022-11-17T17:13:08.316Z,21.73
2022-11-17T17:19:35.352Z,21.79
2022-11-17T17:25:59.729Z,21.85
2022-11-17T17:32:24.029Z,21.91
2022-11-17T17:38:54.631Z,21.97
2022-11-17T17:45:19.634Z,22.00
2022-11-17T17:51:46.820Z,22.00
2022-11-17T17:58:11.091Z,21.95
2022-11-17T18:04:35.397Z,21.85
2022-11-17T18:10:59.816Z,21.75
2022-11-17T18:17:24.153Z,21.65
2022-11-17T18:23:48.472Z,21.55
2022-11-17T18:30:12.946Z,21.47
2022-11-17T18:36:31.139Z,21.39
2022-11-17T18:42:53.904Z,21.31
2022-11-17T18:49:13.696Z,21.23
2022-11-17T18:55:38.332Z,21.15
2022-11-17T19:02:08.705Z,21.07
2022-11-17T19:08:25.969Z,21.00
2022-11-17T19:14:50.332Z,20.97
2022-11-17T19:21:14.640Z,21.01
2022-11-17T19:27:39.080Z,21.08
2022-11-17T19:34:03.490Z,21.18
2022-11-17T19:40:27.788Z,21.26
2022-11-17T19:46:52.092Z,21.34
2022-11-17T19:53:16.496Z,21.42
2022-11-17T19:59:40.782Z,21.50
2022-11-17T20:06:05.240Z,21.56
2022-11-17T20:12:28.253Z,21.62
2022-11-17T20:18:53.557Z,21.69
2022-11-17T20:25:17.843Z,21.74
2022-11-17T20:31:47.910Z,21.79
2022-11-17T20:38:15.656Z,21.85
2022-11-17T20:44:46.401Z,21.90
2022-11-17T20:50:59.519Z,21.95
2022-11-17T20:57:23.849Z,21.99
2022-11-17T21:03:48.218Z,21.98
2022-11-17T21:10:12.530Z,21.95
2022-11-17T21:16:48.871Z,21.90
2022-11-17T21:23:13.244Z,21.85
2022-11-17T21:29:37.673Z,21.81
2022-11-17T21:36:01.979Z,21.75
2022-11-17T21:42:13.155Z,21.69
2022-11-17T21:48:37.470Z,21.61
2022-11-17T21:55:01.898Z,21.53
2022-11-17T22:01:26.504Z,21.44
2022-11-17T22:07:50.916Z,21.36
2022-11-17T22:14:15.209Z,21.25
2022-11-17T22:20:39.665Z,21.15
2022-11-17T22:27:03.957Z,21.06
2022-11-17T22:33:28.395Z,20.97
2022-11-17T22:39:52.701Z,20.89
2022-11-17T22:46:17.026Z,20.81
2022-11-17T22:52:41.304Z,20.74
2022-11-17T22:58:59.981Z,20.66
2022-11-17T23:05:24.543Z,20.58
2022-11-17T23:11:48.819Z,20.49
2022-11-17T23:18:13.242Z,20.41
2022-11-17T23:24:37.633Z,20.30
2022-11-17T23:31:02.082Z,20.22
2022-11-17T23:37:26.795Z,20.12
2022-11-17T23:43:51.065Z,20.04
2022-11-17T23:50:15.452Z,19.94
2022-11-17T23:56:32.410Z,19.86
